createdAt,value
2022-08-17T00:00:54.076Z,948.2555542
2022-08-17T00:01:54.915Z,948.3088379
2022-08-17T00:02:56.345Z,948.3421631
2022-08-17T00:03:57.083Z,948.282959
2022-08-17T00:04:57.940Z,948.2340698
2022-08-17T00:05:58.816Z,948.1663818
2022-08-17T00:06:59.573Z,948.1879883
2022-08-17T00:08:01.218Z,948.119873
2022-08-17T00:09:02.050Z,948.0923462
2022-08-17T00:10:02.854Z,948.0870361
2022-08-17T00:11:04.437Z,948.067627
2022-08-17T00:12:41.996Z,947.9926758
2022-08-17T00:13:06.642Z,947.9349976
2022-08-17T00:14:07.542Z,947.9381104
2022-08-17T00:15:10.475Z,947.9472046
2022-08-17T00:16:09.167Z,947.9108887
2022-08-17T00:17:09.920Z,947.861084
2022-08-17T00:18:57.453Z,947.8858643
2022-08-17T00:19:41.670Z,947.90625
2022-08-17T00:21:13.779Z,947.9434204
2022-08-17T00:22:32.472Z,947.965332
2022-08-17T00:23:48.991Z,948.0070801
2022-08-17T00:24:47.577Z,947.984314
2022-08-17T00:25:48.385Z,948.0390625
2022-08-17T00:26:49.073Z,947.9971924
2022-08-17T00:27:50.770Z,948.0686035
2022-08-17T00:28:51.462Z,948.038147
2022-08-17T00:29:52.284Z,948.0501709
2022-08-17T00:30:53.781Z,948.055481
2022-08-17T00:31:54.402Z,948.1461792
2022-08-17T00:33:23.093Z,948.1975098
2022-08-17T00:33:56.757Z,948.2351685
2022-08-17T00:34:57.570Z,948.2757568
2022-08-17T00:35:58.394Z,948.3076782
2022-08-17T00:36:59.235Z,948.300293
2022-08-17T00:37:59.969Z,948.3609619
2022-08-17T00:39:00.861Z,948.4064941
2022-08-17T00:40:01.797Z,948.4020996
2022-08-17T00:41:02.625Z,948.3789063
2022-08-17T00:42:03.372Z,948.3312378
2022-08-17T00:43:04.774Z,948.3269043
2022-08-17T00:44:05.506Z,948.3467407
2022-08-17T00:45:06.346Z,948.3421631
2022-08-17T00:46:07.164Z,948.3498535
2022-08-17T00:47:07.916Z,948.3261108
2022-08-17T00:48:27.218Z,948.2595215
2022-08-17T00:49:09.552Z,948.2415771
2022-08-17T00:50:10.974Z,948.2043457
2022-08-17T00:51:11.975Z,948.1963501
2022-08-17T00:52:12.765Z,948.1517334
2022-08-17T00:53:14.337Z,948.149231
2022-08-17T00:54:15.513Z,948.2053833
2022-08-17T00:55:46.744Z,948.1737671
2022-08-17T00:56:47.619Z,948.1885986
2022-08-17T00:57:51.189Z,948.1911621
2022-08-17T00:58:49.045Z,948.1871338
2022-08-17T00:59:55.997Z,948.2199707
2022-08-17T01:00:50.919Z,948.2376709
2022-08-17T01:01:52.425Z,948.215332
2022-08-17T01:02:54.057Z,948.2608032
2022-08-17T01:03:55.623Z,948.2400513
2022-08-17T01:04:55.366Z,948.2572632
2022-08-17T01:05:56.210Z,948.3057861
2022-08-17T01:06:57.017Z,948.295166
2022-08-17T01:07:58.353Z,948.2940674
2022-08-17T01:08:59.048Z,948.2923584
2022-08-17T01:09:59.857Z,948.3248291
2022-08-17T01:11:01.830Z,948.3363037
2022-08-17T01:12:01.434Z,948.329895
2022-08-17T01:13:02.832Z,948.3153076
2022-08-17T01:14:03.700Z,948.3198242
2022-08-17T01:15:04.502Z,948.3418579
2022-08-17T01:16:05.404Z,948.2966919
2022-08-17T01:17:06.305Z,948.3724365
2022-08-17T01:18:07.109Z,948.3543091
2022-08-17T01:19:07.883Z,948.335144
2022-08-17T01:20:08.650Z,948.3814087
2022-08-17T01:21:10.346Z,948.3851318
2022-08-17T01:22:11.360Z,948.3851318
2022-08-17T01:23:12.764Z,948.4191284
2022-08-17T01:24:13.565Z,948.4458008
2022-08-17T01:25:14.279Z,948.4578247
2022-08-17T01:26:45.794Z,948.4726563
2022-08-17T01:27:47.408Z,948.4106445
2022-08-17T01:28:54.857Z,948.3629761
2022-08-17T01:29:48.994Z,948.4050293
2022-08-17T01:30:57.921Z,948.4508057
2022-08-17T01:31:50.638Z,948.4035645
2022-08-17T01:32:52.484Z,948.3848267
2022-08-17T01:33:53.182Z,948.3154907
2022-08-17T01:34:54.003Z,948.3429565
2022-08-17T01:35:54.841Z,948.3206177
2022-08-17T01:36:56.354Z,948.348877
2022-08-17T01:37:57.162Z,948.3916626
2022-08-17T01:38:58.148Z,948.4470215
2022-08-17T01:39:58.921Z,948.3942261
2022-08-17T01:40:59.736Z,948.3710327
2022-08-17T01:42:00.564Z,948.3930664
2022-08-17T01:43:01.899Z,948.4862671
2022-08-17T01:44:02.588Z,948.4906006
2022-08-17T01:45:03.304Z,948.517334
2022-08-17T01:46:04.242Z,948.5267334
2022-08-17T01:47:05.009Z,948.5331421
2022-08-17T01:48:05.957Z,948.5718994
2022-08-17T01:49:06.681Z,948.6397095
2022-08-17T01:50:07.392Z,948.6518555
2022-08-17T01:51:08.241Z,948.7161865
2022-08-17T01:52:09.035Z,948.744873
2022-08-17T01:53:10.373Z,948.7613525
2022-08-17T01:54:11.948Z,948.7572021
2022-08-17T01:55:12.670Z,948.7605591
2022-08-17T01:56:13.445Z,948.7645874
2022-08-17T01:57:14.732Z,948.7608643
2022-08-17T01:58:45.975Z,948.7365723
2022-08-17T01:59:46.696Z,948.7739258
2022-08-17T02:01:00.631Z,948.819458
2022-08-17T02:01:48.427Z,948.8041382
2022-08-17T02:02:50.147Z,948.7929688
2022-08-17T02:03:54.552Z,948.8259277
2022-08-17T02:04:51.452Z,948.8294678
2022-08-17T02:05:52.224Z,948.8048706
2022-08-17T02:06:54.577Z,948.8141479
2022-08-17T02:07:59.551Z,948.852356
2022-08-17T02:09:01.807Z,948.8460693
2022-08-17T02:09:56.037Z,948.8126831
2022-08-17T02:10:56.825Z,948.8173218
2022-08-17T02:11:57.665Z,948.8462524
2022-08-17T02:12:59.522Z,948.852356
2022-08-17T02:14:02.855Z,948.8481445
2022-08-17T02:15:01.201Z,948.8571777
2022-08-17T02:16:01.926Z,948.8406372
2022-08-17T02:17:02.700Z,948.8944702
2022-08-17T02:18:03.555Z,948.8724976
2022-08-17T02:19:04.377Z,948.8991699
2022-08-17T02:20:05.152Z,948.9777222
2022-08-17T02:21:06.003Z,948.9920044
2022-08-17T02:22:06.768Z,949.0264282
2022-08-17T02:23:08.451Z,948.991272
2022-08-17T02:24:09.269Z,948.9454956
2022-08-17T02:25:10.071Z,948.8474121
2022-08-17T02:26:10.786Z,948.8112793
2022-08-17T02:27:11.714Z,948.7709351
2022-08-17T02:28:12.545Z,948.7531128
2022-08-17T02:29:13.357Z,948.7960815
2022-08-17T02:31:02.002Z,948.7736206
2022-08-17T02:31:45.706Z,948.7750244
2022-08-17T02:32:46.351Z,948.7427979
2022-08-17T02:34:00.350Z,948.7548218
2022-08-17T02:34:48.777Z,948.7282715
2022-08-17T02:35:49.577Z,948.7298584
2022-08-17T02:36:50.443Z,948.7615356
2022-08-17T02:37:51.940Z,948.7358398
2022-08-17T02:38:52.131Z,948.7156372
2022-08-17T02:39:53.922Z,948.6727905
2022-08-17T02:40:54.648Z,948.6890869
2022-08-17T02:41:55.395Z,948.7023315
2022-08-17T02:42:56.978Z,948.7178345
2022-08-17T02:43:57.804Z,948.7506104
2022-08-17T02:44:59.533Z,948.7109985
2022-08-17T02:46:00.366Z,948.6912231
2022-08-17T02:47:01.258Z,948.640625
2022-08-17T02:48:01.964Z,948.5984497
2022-08-17T02:49:02.810Z,948.5949707
2022-08-17T02:50:03.615Z,948.6148682
2022-08-17T02:51:05.367Z,948.6416626
2022-08-17T02:52:06.090Z,948.604126
2022-08-17T02:53:07.767Z,948.6745605
2022-08-17T02:54:39.706Z,948.7050171
2022-08-17T02:55:09.012Z,948.6774902
2022-08-17T02:56:09.707Z,948.6737671
2022-08-17T02:57:10.524Z,948.6763306
2022-08-17T02:58:11.155Z,948.7409668
2022-08-17T02:59:12.255Z,948.7056274
2022-08-17T03:00:13.105Z,948.7393188
2022-08-17T03:01:44.733Z,948.7207031
2022-08-17T03:02:45.358Z,948.7199707
2022-08-17T03:03:46.799Z,948.7331543
2022-08-17T03:04:47.610Z,948.7402954
2022-08-17T03:05:48.453Z,948.7737427
2022-08-17T03:06:49.301Z,948.7553711
2022-08-17T03:07:51.060Z,948.7404785
2022-08-17T03:08:51.889Z,948.7306519
2022-08-17T03:09:52.703Z,948.7559204
2022-08-17T03:10:53.504Z,948.725647
2022-08-17T03:11:55.829Z,948.7329712
2022-08-17T03:12:55.037Z,948.7752075
2022-08-17T03:13:56.266Z,948.7599487
2022-08-17T03:14:57.004Z,948.7901001
2022-08-17T03:15:57.864Z,948.7625122
2022-08-17T03:16:58.759Z,948.7959595
2022-08-17T03:17:59.654Z,948.7884521
2022-08-17T03:19:00.516Z,948.7670288
2022-08-17T03:20:01.367Z,948.7653198
2022-08-17T03:21:02.186Z,948.8186646
2022-08-17T03:22:35.442Z,948.8834229
2022-08-17T03:23:03.802Z,948.9159546
2022-08-17T03:24:06.917Z,948.9500122
2022-08-17T03:25:10.690Z,948.9539795
2022-08-17T03:26:06.756Z,948.9509277
2022-08-17T03:27:07.591Z,948.9489136
2022-08-17T03:28:08.382Z,948.9440918
2022-08-17T03:29:09.925Z,948.9953613
2022-08-17T03:30:10.627Z,948.9765625
2022-08-17T03:31:11.571Z,949.0300293
2022-08-17T03:32:12.350Z,949.0129395
2022-08-17T03:33:13.652Z,948.9171753
2022-08-17T03:34:45.593Z,948.8925171
2022-08-17T03:35:46.288Z,948.871582
2022-08-17T03:36:47.130Z,948.890625
2022-08-17T03:37:47.959Z,948.8382568
2022-08-17T03:38:48.737Z,948.800415
2022-08-17T03:39:49.455Z,948.786377
2022-08-17T03:40:56.907Z,948.7368774
2022-08-17T03:41:50.799Z,948.736084
2022-08-17T03:42:51.707Z,948.7151489
2022-08-17T03:43:52.979Z,948.6502075
2022-08-17T03:44:53.633Z,948.6270142
2022-08-17T03:45:54.445Z,948.6137695
2022-08-17T03:46:55.240Z,948.619873
2022-08-17T03:47:57.073Z,948.6095581
2022-08-17T03:48:57.849Z,948.6160889
2022-08-17T03:49:58.545Z,948.6188965
2022-08-17T03:50:59.291Z,948.6246338
2022-08-17T03:51:59.973Z,948.5917969
2022-08-17T03:53:00.639Z,948.6099854
2022-08-17T03:54:02.328Z,948.5670166
2022-08-17T03:55:03.052Z,948.4902344
2022-08-17T03:56:03.764Z,948.4128418
2022-08-17T03:57:04.645Z,948.437561
2022-08-17T03:58:05.484Z,948.4467163
2022-08-17T03:59:06.366Z,948.4235229
2022-08-17T04:00:07.842Z,948.40979
2022-08-17T04:01:08.562Z,948.4007568
2022-08-17T04:02:09.261Z,948.3869019
2022-08-17T04:03:10.120Z,948.312561
2022-08-17T04:04:11.875Z,948.310791
2022-08-17T04:05:12.619Z,948.2161865
2022-08-17T04:06:43.691Z,948.2623291
2022-08-17T04:07:44.541Z,948.3060913
2022-08-17T04:08:45.353Z,948.3035278
2022-08-17T04:09:46.189Z,948.3071899
2022-08-17T04:10:46.955Z,948.3272095
2022-08-17T04:11:47.736Z,948.3469238
2022-08-17T04:12:48.818Z,948.3862305
2022-08-17T04:13:50.003Z,948.3822632
2022-08-17T04:14:53.481Z,948.3987427
2022-08-17T04:15:51.697Z,948.3933716
2022-08-17T04:16:52.422Z,948.4271851
2022-08-17T04:17:53.210Z,948.4003296
2022-08-17T04:18:54.040Z,948.3526001
2022-08-17T04:19:54.916Z,948.3295288
2022-08-17T04:20:55.693Z,948.2784424
2022-08-17T04:21:56.461Z,948.2145386
2022-08-17T04:22:57.230Z,948.1740112
2022-08-17T04:23:58.996Z,948.1535034
2022-08-17T04:24:59.988Z,948.1018066
2022-08-17T04:26:00.769Z,948.0910034
2022-08-17T04:27:01.477Z,948.0622559
2022-08-17T04:28:02.813Z,948.0750122
2022-08-17T04:29:03.626Z,948.0750122
2022-08-17T04:30:05.487Z,948.0426636
2022-08-17T04:31:06.293Z,948.0412598
2022-08-17T04:32:07.144Z,948.0857544
2022-08-17T04:33:07.969Z,948.1040039
2022-08-17T04:34:09.495Z,948.1077881
2022-08-17T04:35:10.343Z,948.098877
2022-08-17T04:36:11.081Z,948.1651611
2022-08-17T04:37:12.018Z,948.1975098
2022-08-17T04:38:43.700Z,948.1960449
2022-08-17T04:39:44.444Z,948.2028198
2022-08-17T04:40:45.172Z,948.2132568
2022-08-17T04:41:45.911Z,948.218689
2022-08-17T04:42:46.692Z,948.2354126
2022-08-17T04:43:47.945Z,948.2931519
2022-08-17T04:44:48.620Z,948.3186035
2022-08-17T04:45:55.632Z,948.3143921
2022-08-17T04:46:49.998Z,948.331543
2022-08-17T04:47:50.686Z,948.2778931
2022-08-17T04:48:51.371Z,948.2462769
2022-08-17T04:49:52.034Z,948.2421875
2022-08-17T04:50:52.787Z,948.2377319
2022-08-17T04:51:55.708Z,948.2079468
2022-08-17T04:52:54.369Z,948.2207031
2022-08-17T04:53:55.468Z,948.225647
2022-08-17T04:54:56.158Z,948.2471313
2022-08-17T04:55:56.932Z,948.274231
2022-08-17T04:56:57.562Z,948.2354736
2022-08-17T04:57:58.260Z,948.2815552
2022-08-17T04:58:58.956Z,948.2926636
2022-08-17T05:00:00.330Z,948.310791
2022-08-17T05:01:01.085Z,948.2998657
2022-08-17T05:02:01.735Z,948.3051758
2022-08-17T05:03:02.421Z,948.3118896
2022-08-17T05:04:20.785Z,948.3487549
2022-08-17T05:05:04.692Z,948.329834
2022-08-17T05:06:05.393Z,948.409668
2022-08-17T05:07:06.045Z,948.4490356
2022-08-17T05:08:06.736Z,948.4768677
2022-08-17T05:09:07.420Z,948.5078125
2022-08-17T05:10:08.109Z,948.5061035
2022-08-17T05:11:08.864Z,948.5370483
2022-08-17T05:12:09.539Z,948.5459595
2022-08-17T05:13:10.800Z,948.5418701
2022-08-17T05:14:12.454Z,948.6520386
2022-08-17T05:15:45.198Z,948.6832275
2022-08-17T05:16:44.132Z,948.6765747
2022-08-17T05:17:44.821Z,948.7382813
2022-08-17T05:18:45.557Z,948.6865845
2022-08-17T05:19:51.375Z,948.71875
2022-08-17T05:20:46.942Z,948.7251587
2022-08-17T05:21:47.692Z,948.7318726
2022-08-17T05:22:48.401Z,948.6911621
2022-08-17T05:23:53.903Z,948.7396851
2022-08-17T05:24:53.545Z,948.7189331
2022-08-17T05:25:50.995Z,948.6848145
2022-08-17T05:26:51.802Z,948.6915894
2022-08-17T05:27:52.417Z,948.6205444
2022-08-17T05:28:53.140Z,948.6229858
2022-08-17T05:29:54.465Z,948.5884399
2022-08-17T05:30:55.175Z,948.5761108
2022-08-17T05:31:55.947Z,948.5692139
2022-08-17T05:32:56.575Z,948.5817261
2022-08-17T05:33:57.254Z,948.585022
2022-08-17T05:34:58.802Z,948.6031494
2022-08-17T05:35:59.509Z,948.534668
2022-08-17T05:37:00.343Z,948.5742798
2022-08-17T05:38:01.974Z,948.5609131
2022-08-17T05:39:02.675Z,948.5519409
2022-08-17T05:40:03.446Z,948.5604858
2022-08-17T05:41:04.095Z,948.6182861
2022-08-17T05:42:04.823Z,948.600769
2022-08-17T05:43:05.518Z,948.611145
2022-08-17T05:44:06.974Z,948.5949707
2022-08-17T05:45:07.669Z,948.6177979
2022-08-17T05:46:08.356Z,948.6470337
2022-08-17T05:47:09.913Z,948.6278687
2022-08-17T05:48:10.477Z,948.6447144
2022-08-17T05:49:11.817Z,948.6413574
2022-08-17T05:50:42.849Z,948.6243896
2022-08-17T05:51:43.530Z,948.5407104
2022-08-17T05:52:44.265Z,948.527832
2022-08-17T05:53:44.900Z,948.4934082
2022-08-17T05:54:46.328Z,948.4855957
2022-08-17T05:55:47.044Z,948.5018921
2022-08-17T05:56:47.729Z,948.4906006
2022-08-17T05:57:53.654Z,948.5165405
2022-08-17T05:58:49.106Z,948.487793
2022-08-17T05:59:50.472Z,948.4615479
2022-08-17T06:00:51.291Z,948.4434204
2022-08-17T06:01:51.878Z,948.437561
2022-08-17T06:02:52.942Z,948.3989258
2022-08-17T06:03:53.970Z,948.3649902
2022-08-17T06:04:54.645Z,948.3178711
2022-08-17T06:05:55.340Z,948.2759399
2022-08-17T06:06:56.050Z,948.269043
2022-08-17T06:07:57.373Z,948.2445068
2022-08-17T06:08:58.055Z,948.2509155
2022-08-17T06:09:58.733Z,948.2606812
2022-08-17T06:10:59.502Z,948.2497559
2022-08-17T06:12:00.224Z,948.2834473
2022-08-17T06:13:00.953Z,948.2932129
2022-08-17T06:14:01.620Z,948.3364258
2022-08-17T06:15:03.075Z,948.336853
2022-08-17T06:16:03.734Z,948.3151855
2022-08-17T06:17:04.481Z,948.3337402
2022-08-17T06:18:05.178Z,948.3240356
2022-08-17T06:19:05.840Z,948.3421631
2022-08-17T06:20:06.527Z,948.3867188
2022-08-17T06:21:07.240Z,948.3748169
2022-08-17T06:22:07.909Z,948.3956299
2022-08-17T06:23:08.652Z,948.40979
2022-08-17T06:24:09.265Z,948.3986206
2022-08-17T06:25:10.960Z,948.4230957
2022-08-17T06:26:43.385Z,948.3587646
2022-08-17T06:27:43.510Z,948.4004517
2022-08-17T06:28:44.216Z,948.4216919
2022-08-17T06:29:44.865Z,948.4022827
2022-08-17T06:31:00.404Z,948.411377
2022-08-17T06:31:46.289Z,948.3719482
2022-08-17T06:32:47.035Z,948.3968506
2022-08-17T06:33:47.675Z,948.3776855
2022-08-17T06:34:48.989Z,948.4089966
2022-08-17T06:35:49.736Z,948.434082
2022-08-17T06:36:50.428Z,948.4259644
2022-08-17T06:37:51.146Z,948.4494629
2022-08-17T06:38:51.870Z,948.479248
2022-08-17T06:39:52.625Z,948.453064
2022-08-17T06:40:53.285Z,948.4798584
2022-08-17T18:53:43.207Z,951.8030396
2022-08-17T18:54:43.643Z,951.8881226
2022-08-17T18:55:44.052Z,951.7945557
2022-08-17T18:56:45.071Z,951.829834
2022-08-17T18:57:44.911Z,951.7817993
2022-08-17T18:58:45.293Z,951.8599854
2022-08-17T18:59:45.640Z,951.8139038
2022-08-17T19:00:46.049Z,951.9176636
2022-08-17T19:01:52.805Z,952.0029907
2022-08-17T19:02:47.037Z,951.9597168
2022-08-17T19:03:48.182Z,951.8865356
2022-08-17T19:04:48.597Z,952.0461426
2022-08-17T19:05:48.995Z,952.0126343
2022-08-17T19:06:49.401Z,952.0825806
2022-08-17T19:07:50.075Z,952.0257568
2022-08-17T19:08:50.339Z,952.1170044
2022-08-17T19:09:50.723Z,952.1665039
2022-08-17T19:10:51.124Z,952.1414795
2022-08-17T19:11:51.523Z,952.1218872
2022-08-17T19:12:51.922Z,952.152832
2022-08-17T19:13:53.191Z,952.1231079
2022-08-17T19:14:53.635Z,952.1281128
2022-08-17T19:16:14.387Z,952.1640625
2022-08-17T19:16:54.422Z,952.1345215
2022-08-17T19:17:54.821Z,952.1243896
2022-08-17T19:18:55.284Z,952.1859131
2022-08-17T19:19:55.734Z,952.1973267
2022-08-17T19:20:56.205Z,952.2843018
2022-08-17T19:21:56.625Z,952.2712402
2022-08-17T19:22:57.054Z,952.2850952
2022-08-17T19:23:58.208Z,952.2626343
2022-08-17T19:25:02.925Z,952.2667236
2022-08-17T19:25:59.078Z,952.2307739
2022-08-17T19:26:59.650Z,952.2340088
2022-08-17T19:28:00.387Z,952.2287598
2022-08-17T19:29:00.482Z,952.2581787
2022-08-17T19:30:06.982Z,952.2023315
2022-08-17T19:31:01.342Z,952.2053223
2022-08-17T19:32:01.775Z,952.2382813
2022-08-17T19:33:02.218Z,952.258728
2022-08-17T19:34:03.699Z,952.2687988
2022-08-17T19:35:04.149Z,952.3047485
2022-08-17T19:36:04.608Z,952.3045044
2022-08-17T19:37:04.999Z,952.2584229
2022-08-17T19:38:05.434Z,952.31427
2022-08-17T19:39:05.922Z,952.3181152
2022-08-17T19:40:06.396Z,952.2684937
2022-08-17T19:41:06.777Z,952.3035889
2022-08-17T19:42:07.870Z,952.2492065
2022-08-17T19:43:08.284Z,952.2562256
2022-08-17T19:44:09.773Z,952.2718506
2022-08-17T19:45:10.181Z,952.2435913
2022-08-17T19:46:10.601Z,952.2401733
2022-08-17T19:47:11.499Z,952.3370972
2022-08-17T19:48:42.140Z,952.3543701
2022-08-17T19:49:42.572Z,952.3978882
2022-08-17T19:50:42.969Z,952.4296265
2022-08-17T19:51:43.381Z,952.5134277
2022-08-17T19:52:43.784Z,952.5061646
2022-08-17T19:54:04.237Z,952.5462646
2022-08-17T19:54:45.431Z,952.5661011
2022-08-17T19:55:45.783Z,952.5987549
2022-08-17T19:56:46.189Z,952.5509644
2022-08-17T19:57:46.724Z,952.5975952
2022-08-17T19:58:47.029Z,952.5571899
2022-08-17T19:59:47.517Z,952.5610962
2022-08-17T20:00:47.905Z,952.6184082
2022-08-17T20:01:48.355Z,952.6018677
2022-08-17T20:02:48.737Z,952.5678711
2022-08-17T20:03:49.676Z,952.5681152
2022-08-17T20:04:50.724Z,952.5245361
2022-08-17T20:06:11.445Z,952.5512695
2022-08-17T20:06:51.540Z,952.5183716
2022-08-17T20:07:52.198Z,952.5443726
2022-08-17T20:08:52.372Z,952.5737305
2022-08-17T20:09:52.832Z,952.5454712
2022-08-17T20:10:54.838Z,952.5115356
2022-08-17T20:11:53.617Z,952.4726563
2022-08-17T20:12:54.893Z,952.4690552
2022-08-17T20:13:55.279Z,952.4870605
2022-08-17T20:14:56.400Z,952.4547119
2022-08-17T20:15:56.800Z,952.470459
2022-08-17T20:17:00.510Z,952.4859619
2022-08-17T20:17:57.682Z,952.4223633
2022-08-17T20:18:58.076Z,952.4393921
2022-08-17T20:19:58.506Z,952.4458008
2022-08-17T20:20:59.393Z,952.4324951
2022-08-17T20:21:59.792Z,952.4575195
2022-08-17T20:23:00.298Z,952.4441528
2022-08-17T20:24:01.692Z,952.4293823
2022-08-17T20:25:02.130Z,952.3980713
2022-08-17T20:26:02.495Z,952.366394
2022-08-17T20:27:02.902Z,952.2890015
2022-08-17T20:28:05.756Z,952.3113403
2022-08-17T20:29:03.745Z,952.255127
2022-08-17T20:30:04.225Z,952.2616577
2022-08-17T20:31:04.652Z,952.289856
2022-08-17T20:32:05.051Z,952.2748413
2022-08-17T20:33:05.460Z,952.3151855
2022-08-17T20:34:06.678Z,952.3399048
2022-08-17T20:35:07.128Z,952.3432007
2022-08-17T20:36:07.503Z,952.3340454
2022-08-17T20:37:07.938Z,952.3867798
2022-08-17T20:38:08.312Z,952.335022
2022-08-17T20:39:09.373Z,952.3981934
2022-08-17T20:40:09.963Z,952.3554688
2022-08-17T20:41:10.201Z,952.3739624
2022-08-17T20:42:41.047Z,952.40271
2022-08-17T20:43:41.777Z,952.3656006
2022-08-17T20:44:42.905Z,952.3384399
2022-08-17T20:45:43.365Z,952.3253784
2022-08-17T20:46:43.782Z,952.2973633
2022-08-17T20:48:07.506Z,952.2940674
2022-08-17T20:48:44.993Z,952.227478
2022-08-17T20:49:45.010Z,952.2028198
2022-08-17T20:50:46.234Z,952.154541
2022-08-17T20:52:00.674Z,952.1543579
2022-08-17T20:52:47.075Z,952.1574707
2022-08-17T20:53:47.517Z,952.1426392
2022-08-17T20:54:47.926Z,952.1377563
2022-08-17T20:55:51.448Z,952.1624146
2022-08-17T20:56:48.709Z,952.1495361
2022-08-17T20:57:49.262Z,952.1749878
2022-08-17T20:58:49.552Z,952.2120361
2022-08-17T20:59:49.990Z,952.2038574
2022-08-17T21:00:50.505Z,952.215332
2022-08-17T21:01:50.883Z,952.2171631
2022-08-17T21:02:51.295Z,952.2097168
2022-08-17T21:03:52.717Z,952.1668701
2022-08-17T21:04:53.685Z,952.1585083
2022-08-17T21:05:57.426Z,952.1585083
2022-08-17T21:06:54.465Z,952.2037354
2022-08-17T21:07:55.097Z,952.1741943
2022-08-17T21:08:55.300Z,952.1570435
2022-08-17T21:09:55.689Z,952.1798706
2022-08-17T21:10:56.084Z,952.199707
2022-08-17T21:12:03.848Z,952.1612549
2022-08-17T21:12:57.393Z,952.0704956
2022-08-17T21:13:57.816Z,952.024353
2022-08-17T21:14:58.882Z,952.0057983
2022-08-17T21:15:59.325Z,951.9760742
2022-08-17T21:16:59.698Z,951.9976807
2022-08-17T21:18:00.085Z,952.0109253
2022-08-17T21:19:00.606Z,951.9953003
2022-08-17T21:20:11.049Z,951.9689941
2022-08-17T21:21:02.437Z,951.9578857
2022-08-17T21:22:02.790Z,951.9710083
2022-08-17T21:23:03.195Z,951.8831177
2022-08-17T21:24:03.602Z,951.8554688
2022-08-17T21:25:04.091Z,951.8833008
2022-08-17T21:26:04.518Z,951.8192749
2022-08-17T21:27:05.425Z,951.8273315
2022-08-17T21:28:05.899Z,951.8084106
2022-08-17T21:29:30.144Z,951.8233032
2022-08-17T21:30:10.044Z,951.7874146
2022-08-17T21:31:07.101Z,951.8448486
2022-08-17T21:32:07.547Z,951.8110962
2022-08-17T21:33:07.895Z,951.8359375
2022-08-17T21:34:08.295Z,951.8468628
2022-08-17T21:35:09.398Z,951.8318481
2022-08-17T21:36:40.397Z,951.819519
2022-08-17T21:37:40.759Z,951.7728271
2022-08-17T21:38:41.164Z,951.772583
2022-08-17T21:39:41.773Z,951.7636108
2022-08-17T21:40:42.084Z,951.7717285
2022-08-17T21:41:42.497Z,951.7436523
2022-08-17T21:42:43.691Z,951.7815552
2022-08-17T21:43:44.079Z,951.7815552
2022-08-17T21:44:45.203Z,951.7879639
2022-08-17T21:45:45.593Z,951.8103027
2022-08-17T21:46:46.565Z,951.828125
2022-08-17T21:47:46.911Z,951.8387451
2022-08-17T21:48:48.369Z,951.7976685
2022-08-17T21:49:47.698Z,951.8460693
2022-08-17T21:50:48.091Z,951.7949829
2022-08-17T21:51:48.479Z,951.7521973
2022-08-17T21:52:48.880Z,951.7332764
2022-08-17T21:53:49.329Z,951.7495117
2022-08-17T21:54:49.746Z,951.7230225
2022-08-17T21:55:50.697Z,951.7073364
2022-08-17T21:56:51.140Z,951.7445068
2022-08-17T21:57:52.969Z,951.7172852
2022-08-17T21:58:52.700Z,951.7270508
2022-08-17T21:59:53.113Z,951.7015381
2022-08-17T22:00:53.582Z,951.6997681
2022-08-17T22:02:05.358Z,951.6676636
2022-08-17T22:03:55.701Z,951.6574707
2022-08-17T22:04:56.082Z,951.5988159
2022-08-17T22:05:57.232Z,951.5700073
2022-08-17T22:06:57.925Z,951.5773315
2022-08-17T22:07:58.044Z,951.5575562
2022-08-17T22:08:58.426Z,951.5804443
2022-08-17T22:09:58.827Z,951.6157837
2022-08-17T22:10:59.222Z,951.6033325
2022-08-17T22:11:59.617Z,951.6048584
2022-08-17T22:13:00.924Z,951.6123657
2022-08-17T22:14:05.663Z,951.631897
2022-08-17T22:15:01.707Z,951.6309204
2022-08-17T22:16:02.706Z,951.6299438
2022-08-17T22:17:03.118Z,951.6462402
2022-08-17T22:18:03.530Z,951.5917969
2022-08-17T22:19:03.913Z,951.6289063
2022-08-17T22:20:04.317Z,951.623291
2022-08-17T22:21:04.747Z,951.6559448
2022-08-17T22:22:05.137Z,951.6578369
2022-08-17T22:23:05.538Z,951.7090454
2022-08-17T22:24:05.915Z,951.7106323
2022-08-17T22:25:06.296Z,951.7528687
2022-08-17T22:26:09.511Z,951.7338867
2022-08-17T22:27:07.651Z,951.7453003
2022-08-17T22:28:08.064Z,951.8094482
2022-08-17T22:29:08.438Z,951.8318481
2022-08-17T22:30:09.317Z,951.852478
2022-08-17T22:31:39.913Z,951.8591919
2022-08-17T22:32:40.294Z,951.8632813
2022-08-17T22:33:40.735Z,951.874939
2022-08-17T22:34:41.105Z,951.8570557
2022-08-17T22:35:41.679Z,951.8995972
2022-08-17T22:36:42.916Z,951.8908081
2022-08-17T22:37:43.337Z,951.9029541
2022-08-17T22:38:43.861Z,951.8699951
2022-08-17T22:39:44.244Z,951.8947144
2022-08-17T22:40:45.412Z,951.8543091
2022-08-17T22:41:45.821Z,951.9257813
2022-08-17T22:42:46.234Z,951.8823242
2022-08-17T22:43:46.750Z,951.9207153
2022-08-17T22:44:47.166Z,951.928894
2022-08-17T22:45:47.573Z,951.9412231
2022-08-17T22:46:47.984Z,951.9432983
2022-08-17T22:47:48.410Z,951.9620361
2022-08-17T22:48:48.885Z,951.9909668
2022-08-17T22:49:53.487Z,952.0195313
2022-08-17T22:50:50.429Z,952.0026855
2022-08-17T22:51:50.816Z,952.0289307
2022-08-17T22:52:51.212Z,952.0543823
2022-08-17T22:53:53.636Z,952.0550537
2022-08-17T22:54:52.065Z,952.052002
2022-08-17T22:55:52.524Z,952.0258789
2022-08-17T22:56:52.943Z,952.0267334
2022-08-17T22:57:53.387Z,952.0753174
2022-08-17T22:58:59.054Z,952.0609131
2022-08-17T22:59:54.250Z,952.0429688
2022-08-17T23:00:55.420Z,952.0915527
2022-08-17T23:01:55.825Z,952.0661011
2022-08-17T23:02:56.361Z,952.024292
2022-08-17T23:03:56.855Z,952.039856
2022-08-17T23:04:57.236Z,952.0505981
2022-08-17T23:05:58.440Z,951.9938965
2022-08-17T23:06:58.827Z,951.9945068
2022-08-17T23:07:59.713Z,952.0193481
2022-08-17T23:09:00.334Z,951.991272
2022-08-17T23:10:00.709Z,951.9970093
2022-08-17T23:11:01.972Z,951.9880981
2022-08-17T23:12:02.424Z,952.0076294
2022-08-17T23:13:02.837Z,951.9675293
2022-08-17T23:14:03.313Z,951.9272461
2022-08-17T23:15:04.419Z,951.9156494
2022-08-17T23:16:04.941Z,951.873291
2022-08-17T23:17:05.303Z,951.8361206
2022-08-17T23:18:05.696Z,951.7938843
2022-08-17T23:19:06.193Z,951.7567139
2022-08-17T23:20:06.574Z,951.7421265